Time;durP1;ratioP1;P1;durP2;ratioP2;P2;SDS_P1;SDS_P2;PMS_P1;PMS_P2;Temp;Humidity;BMP_temperature;BMP_pressure;BME280_temperature;BME280_humidity;BME280_pressure;Samples;Min_cycle;Max_cycle;Signal;HPM_P1;HPM_P2
2023/04/29 00:01:32;;;;;;;18.80;10.02;;;9.50;99.90;;;;;;5039998;28;20037;-73
2023/04/29 00:03:58;;;;;;;27.03;10.77;;;9.50;99.90;;;;;;5044460;28;20060;-73
2023/04/29 00:06:24;;;;;;;22.53;10.27;;;9.50;99.90;;;;;;5026123;28;20289;-73
2023/04/29 00:08:52;;;;;;;21.80;10.53;;;9.50;99.90;;;;;;5040210;28;20433;-73
2023/04/29 00:11:17;;;;;;;19.98;10.25;;;9.50;99.90;;;;;;5110713;22;20036;-71
2023/04/29 00:13:43;;;;;;;23.27;10.03;;;9.60;99.90;;;;;;5005480;28;20051;-72
2023/04/29 00:16:09;;;;;;;22.90;10.37;;;9.50;99.90;;;;;;5006944;28;20037;-72
2023/04/29 00:18:36;;;;;;;;;;;9.40;99.90;;;;;;5001177;28;20319;-72
2023/04/29 00:21:04;;;;;;;21.65;9.82;;;9.40;99.90;;;;;;5011010;28;19921;-72
2023/04/29 00:23:31;;;;;;;24.55;10.27;;;9.40;99.90;;;;;;5022794;28;20033;-72
2023/04/29 00:25:57;;;;;;;24.13;10.63;;;9.40;99.90;;;;;;5004252;28;20080;-72
2023/04/29 00:28:22;;;;;;;22.47;10.17;;;9.40;99.90;;;;;;5011123;28;20037;-72
2023/04/29 00:30:48;;;;;;;22.73;10.63;;;9.40;99.90;;;;;;5004509;28;20041;-71
2023/04/29 00:33:13;;;;;;;23.43;10.17;;;9.40;99.90;;;;;;5020482;28;20045;-71
2023/04/29 00:35:39;;;;;;;23.27;10.07;;;9.40;99.90;;;;;;5019133;28;20562;-72
2023/04/29 00:38:04;;;;;;;22.33;10.00;;;9.40;99.90;;;;;;5010960;28;20204;-72
2023/04/29 00:40:30;;;;;;;20.10;10.80;;;9.40;99.90;;;;;;5022281;28;20498;-72
2023/04/29 00:42:56;;;;;;;21.73;11.00;;;9.40;99.90;;;;;;5024850;28;20033;-72
2023/04/29 00:45:22;;;;;;;30.07;11.63;;;9.40;99.90;;;;;;4990941;28;20063;-72
2023/04/29 00:47:51;;;;;;;;;;;9.40;99.90;;;;;;4991714;28;20716;-71
2023/04/29 00:50:16;;;;;;;20.90;10.68;;;9.40;99.90;;;;;;5008825;28;19925;-72
2023/04/29 00:52:42;;;;;;;21.53;10.03;;;9.40;99.90;;;;;;4990333;28;20053;-71
2023/04/29 00:55:11;;;;;;;22.15;10.35;;;9.40;99.90;;;;;;5005346;28;20464;-71
2023/04/29 00:57:40;;;;;;;21.38;9.68;;;9.40;99.90;;;;;;5005482;28;20513;-71
2023/04/29 01:00:08;;;;;;;22.10;10.37;;;9.40;99.90;;;;;;5014807;28;20144;-71
2023/04/29 01:02:34;;;;;;;19.83;10.75;;;9.40;99.90;;;;;;5019908;28;20057;-71
2023/04/29 01:05:02;;;;;;;21.53;9.90;;;9.40;99.90;;;;;;5006938;28;20041;-71
2023/04/29 01:07:44;;;;;;;19.85;10.55;;;9.40;99.90;;;;;;5008596;28;20081;-71
2023/04/29 01:10:14;;;;;;;20.25;10.10;;;9.40;99.90;;;;;;5015550;28;20068;-72
2023/04/29 01:12:53;;;;;;;22.90;10.35;;;9.40;99.90;;;;;;5025191;28;20032;-71
2023/04/29 01:15:25;;;;;;;24.40;10.20;;;9.40;99.90;;;;;;5007985;28;20125;-71
2023/04/29 01:18:25;;;;;;;20.67;9.88;;;9.40;99.90;;;;;;5005308;28;20372;-71
2023/04/29 01:20:51;;;;;;;22.50;10.02;;;9.40;99.90;;;;;;4990729;28;20049;-71
2023/04/29 01:23:17;;;;;;;17.63;10.45;;;9.40;99.90;;;;;;5008284;28;20041;-71
2023/04/29 01:25:46;;;;;;;19.70;10.65;;;9.40;99.90;;;;;;5006915;28;20041;-71
2023/04/29 01:28:37;;;;;;;20.73;10.13;;;9.40;99.90;;;;;;5024506;28;20041;-72
2023/04/29 01:31:07;;;;;;;22.10;10.02;;;9.40;99.90;;;;;;4992405;28;20493;-71
2023/04/29 01:33:46;;;;;;;22.58;10.48;;;9.40;99.90;;;;;;5003691;28;20132;-71
2023/04/29 01:36:25;;;;;;;27.30;10.27;;;9.40;99.90;;;;;;5022351;28;20108;-71
2023/04/29 01:39:27;;;;;;;23.55;10.55;;;9.30;99.90;;;;;;5023084;28;20041;-71
2023/04/29 01:42:04;;;;;;;20.00;9.73;;;9.40;99.90;;;;;;5001821;28;20073;-71
2023/04/29 01:44:31;;;;;;;18.90;9.88;;;9.40;99.90;;;;;;5024563;28;20076;-71
2023/04/29 01:46:59;;;;;;;19.88;9.73;;;9.40;99.90;;;;;;5008532;28;20110;-71
2023/04/29 01:49:26;;;;;;;17.40;9.77;;;9.40;99.90;;;;;;5031471;28;20038;-71
2023/04/29 01:51:52;;;;;;;19.75;10.00;;;9.40;99.90;;;;;;4994989;28;20041;-71
2023/04/29 01:54:18;;;;;;;20.53;9.50;;;9.30;99.90;;;;;;5011965;28;20038;-71
2023/04/29 01:56:43;;;;;;;20.77;10.07;;;9.30;99.90;;;;;;5027060;28;20046;-71
2023/04/29 01:59:09;;;;;;;25.30;10.10;;;9.30;99.90;;;;;;5005434;28;20038;-71
2023/04/29 02:01:35;;;;;;;21.60;9.88;;;9.30;99.90;;;;;;5005285;28;20041;-71
2023/04/29 02:04:01;;;;;;;17.58;10.13;;;9.30;99.90;;;;;;5012594;28;20041;-71
2023/04/29 02:06:27;;;;;;;16.98;9.52;;;9.30;99.90;;;;;;5010094;28;20056;-71
2023/04/29 02:08:53;;;;;;;23.70;9.63;;;9.30;99.90;;;;;;5007067;28;20037;-71
2023/04/29 02:11:19;;;;;;;20.43;9.30;;;9.30;99.90;;;;;;5013186;28;20045;-71
2023/04/29 02:13:44;;;;;;;25.77;10.60;;;9.30;99.90;;;;;;5010662;28;20592;-72
2023/04/29 02:16:12;;;;;;;21.07;9.87;;;9.30;99.90;;;;;;5003890;28;20402;-71
2023/04/29 02:18:40;;;;;;;21.20;9.52;;;9.30;99.90;;;;;;4989727;28;20294;-71
2023/04/29 02:21:06;;;;;;;18.85;10.40;;;9.30;99.90;;;;;;5010887;28;20418;-71
2023/04/29 02:23:35;;;;;;;32.55;11.95;;;9.30;99.90;;;;;;5011659;28;20163;-71
2023/04/29 02:26:08;;;;;;;22.10;10.40;;;9.30;99.90;;;;;;5001708;28;20053;-72
2023/04/29 02:28:34;;;;;;;20.10;11.23;;;9.30;99.90;;;;;;5021133;28;20556;-71
2023/04/29 02:31:00;;;;;;;25.23;11.68;;;9.30;99.90;;;;;;5023952;28;20120;-72
2023/04/29 02:33:25;;;;;;;24.40;10.65;;;9.30;99.90;;;;;;5010162;28;20038;-71
2023/04/29 02:35:51;;;;;;;24.97;10.87;;;9.30;99.90;;;;;;5007592;28;20244;-71
2023/04/29 02:38:17;;;;;;;27.63;12.00;;;9.30;99.90;;;;;;5013849;28;20056;-71
2023/04/29 02:40:46;;;;;;;25.27;10.93;;;9.20;99.90;;;;;;5017981;28;20912;-71
2023/04/29 02:43:12;;;;;;;27.75;11.80;;;9.20;99.90;;;;;;5008951;28;20136;-71
2023/04/29 02:45:38;;;;;;;31.13;12.63;;;9.20;99.90;;;;;;5004142;28;20136;-72
2023/04/29 02:48:05;;;;;;;27.73;11.60;;;9.20;99.90;;;;;;5027208;28;20045;-71
2023/04/29 02:50:31;;;;;;;21.60;10.40;;;9.20;99.90;;;;;;5008535;28;20041;-71
2023/04/29 02:52:57;;;;;;;27.45;11.73;;;9.20;99.90;;;;;;4986821;28;20041;-71
2023/04/29 02:55:23;;;;;;;22.40;10.83;;;9.20;99.90;;;;;;5004280;28;20068;-71
2023/04/29 02:57:48;;;;;;;23.02;10.50;;;9.20;99.90;;;;;;5007870;28;20041;-71
2023/04/29 03:00:14;;;;;;;28.60;10.90;;;9.20;99.90;;;;;;5008648;28;20105;-71
2023/04/29 03:02:43;;;;;;;25.27;9.40;;;9.20;99.90;;;;;;5013699;28;20040;-71
2023/04/29 03:05:09;;;;;;;21.65;10.38;;;9.20;99.90;;;;;;5032024;28;20408;-71
2023/04/29 03:07:34;;;;;;;22.23;9.75;;;9.20;99.90;;;;;;5006347;28;20046;-71
2023/04/29 03:10:00;;;;;;;21.47;8.90;;;9.20;99.90;;;;;;5014066;28;20045;-71
2023/04/29 03:12:28;;;;;;;18.87;8.50;;;9.10;99.90;;;;;;5013512;28;20037;-71
2023/04/29 03:14:54;;;;;;;20.65;9.20;;;9.20;99.90;;;;;;5012314;28;20124;-71
2023/04/29 03:17:20;;;;;;;24.17;10.03;;;9.10;99.90;;;;;;4996422;28;20120;-71
2023/04/29 03:19:45;;;;;;;22.17;9.93;;;9.10;99.90;;;;;;5009104;28;20085;-71
2023/04/29 03:22:11;;;;;;;18.37;8.90;;;9.10;99.90;;;;;;4994395;28;20491;-71
2023/04/29 03:24:37;;;;;;;16.43;8.73;;;9.10;99.90;;;;;;5020976;28;20064;-71
2023/04/29 03:27:04;;;;;;;16.50;9.18;;;9.10;99.90;;;;;;5010371;28;20509;-71
2023/04/29 03:29:30;;;;;;;22.33;9.52;;;9.10;99.90;;;;;;5015119;28;20041;-71
2023/04/29 03:31:56;;;;;;;24.35;9.52;;;9.10;99.90;;;;;;4993889;28;20144;-71
2023/04/29 03:34:25;;;;;;;22.67;9.85;;;9.10;99.90;;;;;;5014512;28;20452;-71
2023/04/29 03:36:51;;;;;;;20.98;9.27;;;9.10;99.90;;;;;;4994702;28;20125;-71
2023/04/29 03:39:17;;;;;;;17.17;8.77;;;9.10;99.90;;;;;;5021844;28;20125;-71
2023/04/29 03:41:42;;;;;;;18.08;9.43;;;9.10;99.90;;;;;;5014403;28;20049;-71
2023/04/29 03:44:08;;;;;;;17.30;9.00;;;9.10;99.90;;;;;;5007128;28;20045;-71
2023/04/29 03:46:34;;;;;;;18.70;8.57;;;9.10;99.90;;;;;;5024818;28;20053;-71
2023/04/29 03:49:00;;;;;;;22.30;9.07;;;9.10;99.90;;;;;;5017240;28;20274;-71
2023/04/29 03:51:26;;;;;;;16.67;8.10;;;9.10;99.90;;;;;;5033375;28;20040;-71
2023/04/29 03:53:55;;;;;;;21.10;8.32;;;9.10;99.90;;;;;;4999244;28;20132;-71
2023/04/29 03:56:26;;;;;;;18.55;7.93;;;9.10;99.90;;;;;;5016698;28;20497;-71
2023/04/29 03:58:52;;;;;;;20.52;8.70;;;9.10;99.90;;;;;;5011138;28;20124;-71
2023/04/29 04:01:18;;;;;;;19.17;8.15;;;9.10;99.90;;;;;;5007151;28;20120;-71
2023/04/29 04:03:44;;;;;;;18.90;8.00;;;9.10;99.90;;;;;;5010917;28;20125;-71
2023/04/29 04:06:09;;;;;;;21.50;8.45;;;9.10;99.90;;;;;;5003698;28;20228;-71
2023/04/29 04:08:35;;;;;;;20.00;7.73;;;9.10;99.90;;;;;;4986852;28;20103;-71
2023/04/29 04:11:04;;;;;;;18.27;8.20;;;9.10;99.90;;;;;;5020622;28;20155;-71
2023/04/29 04:13:29;;;;;;;16.58;7.40;;;9.10;99.90;;;;;;4989325;28;20132;-71
2023/04/29 04:15:55;;;;;;;19.00;7.83;;;9.10;99.90;;;;;;5005512;28;20084;-71
2023/04/29 04:18:21;;;;;;;17.30;7.60;;;9.10;99.90;;;;;;5010030;28;20099;-71
2023/04/29 04:20:46;;;;;;;11.97;6.77;;;9.10;99.90;;;;;;5001989;28;20266;-71
2023/04/29 04:23:12;;;;;;;11.90;6.13;;;9.10;99.90;;;;;;5010522;28;20112;-71
2023/04/29 04:25:47;;;;;;;15.60;6.57;;;9.10;99.90;;;;;;5011631;28;20034;-71
2023/04/29 04:28:13;;;;;;;13.73;5.95;;;9.10;99.90;;;;;;5006701;28;20053;-71
2023/04/29 04:30:39;;;;;;;16.13;6.40;;;9.10;99.90;;;;;;5021610;28;20360;-70
2023/04/29 04:33:05;;;;;;;14.30;6.07;;;9.10;99.90;;;;;;5011956;28;20052;-71
2023/04/29 04:35:31;;;;;;;13.90;6.03;;;9.00;99.90;;;;;;5011161;28;20618;-71
2023/04/29 04:37:57;;;;;;;13.88;5.55;;;9.00;99.90;;;;;;5006621;28;20063;-71
2023/04/29 04:40:23;;;;;;;11.13;5.60;;;9.00;99.90;;;;;;5006128;28;20050;-71
2023/04/29 04:42:49;;;;;;;12.10;4.90;;;9.10;99.90;;;;;;5011927;28;20095;-71
2023/04/29 04:45:15;;;;;;;9.83;5.00;;;9.10;99.90;;;;;;4989104;28;20479;-71
2023/04/29 04:47:41;;;;;;;14.17;6.07;;;9.00;99.90;;;;;;4991623;28;20128;-71
2023/04/29 04:50:07;;;;;;;11.53;5.37;;;9.00;99.90;;;;;;5013060;28;20302;-71
2023/04/29 04:52:33;;;;;;;;;;;9.00;99.90;;;;;;5008568;28;20055;-71
2023/04/29 04:54:58;;;;;;;12.73;4.80;;;9.00;99.90;;;;;;5003993;28;19925;-71
2023/04/29 04:57:25;;;;;;;13.93;4.97;;;9.00;99.90;;;;;;5027110;28;20041;-72
2023/04/29 04:59:50;;;;;;;16.73;5.40;;;9.00;99.90;;;;;;4991681;28;20456;-71
2023/04/29 05:02:18;;;;;;;12.60;5.70;;;9.10;99.90;;;;;;5006754;28;20140;-71
2023/04/29 05:04:44;;;;;;;11.00;5.63;;;9.00;99.90;;;;;;5027002;28;20163;-71
2023/04/29 05:07:10;;;;;;;13.95;5.15;;;9.00;99.90;;;;;;5014068;28;20467;-71
2023/04/29 05:09:36;;;;;;;14.63;5.65;;;9.10;99.90;;;;;;5008724;28;20064;-72
2023/04/29 05:12:02;;;;;;;12.55;5.85;;;9.00;99.90;;;;;;4990782;28;20044;-71
2023/04/29 05:14:28;;;;;;;13.93;5.63;;;9.10;99.90;;;;;;5004969;28;20045;-71
2023/04/29 05:16:58;;;;;;;17.83;5.00;;;9.10;99.90;;;;;;5004753;28;20444;-72
2023/04/29 05:19:23;;;;;;;14.43;5.32;;;9.10;99.90;;;;;;4997478;28;20635;-71
2023/04/29 05:21:49;;;;;;;12.97;5.73;;;9.10;99.90;;;;;;5018273;28;20083;-71
2023/04/29 05:24:17;;;;;;;11.57;5.20;;;9.10;99.90;;;;;;5000769;28;20067;-72
2023/04/29 05:26:45;;;;;;;14.02;5.57;;;9.10;99.90;;;;;;5003177;28;20048;-72
2023/04/29 05:29:11;;;;;;;12.32;5.03;;;9.10;99.90;;;;;;4996368;28;20034;-71
2023/04/29 05:31:40;;;;;;;10.20;5.33;;;9.10;99.90;;;;;;5016140;28;20034;-71
2023/04/29 05:34:05;;;;;;;14.32;5.63;;;9.10;99.90;;;;;;4995125;28;20037;-71
2023/04/29 05:36:31;;;;;;;10.20;5.20;;;9.10;99.90;;;;;;5014864;28;20384;-71
2023/04/29 05:38:57;;;;;;;14.60;5.13;;;9.10;99.90;;;;;;5000009;28;20045;-71
2023/04/29 05:41:23;;;;;;;14.32;4.72;;;9.00;99.90;;;;;;4996333;28;20065;-72
2023/04/29 05:43:50;;;;;;;10.20;4.10;;;9.10;99.90;;;;;;5006492;28;20175;-71
2023/04/29 05:46:16;;;;;;;;;;;9.10;99.90;;;;;;4996194;28;21192;-71
2023/04/29 05:48:42;;;;;;;10.07;4.63;;;9.10;99.90;;;;;;4993171;28;19917;-73
2023/04/29 05:51:13;;;;;;;10.43;4.78;;;9.00;99.90;;;;;;5023565;28;20153;-71
2023/04/29 05:53:39;;;;;;;12.45;5.40;;;9.00;99.90;;;;;;5008544;28;20479;-71
2023/04/29 05:56:07;;;;;;;11.95;5.00;;;9.10;99.90;;;;;;4996164;28;20045;-72
2023/04/29 05:58:38;;;;;;;10.95;5.32;;;9.00;99.90;;;;;;5006325;28;20057;-72
2023/04/29 06:01:03;;;;;;;14.45;4.60;;;9.10;99.90;;;;;;5023262;28;20468;-71
2023/04/29 06:03:30;;;;;;;12.93;4.83;;;9.10;99.90;;;;;;5014699;28;20080;-71
2023/04/29 06:05:55;;;;;;;12.10;5.20;;;9.10;99.90;;;;;;5010373;28;20506;-71
2023/04/29 06:08:21;;;;;;;8.82;4.85;;;9.10;99.90;;;;;;5023781;28;20038;-71
2023/04/29 06:10:47;;;;;;;11.07;5.67;;;9.10;99.90;;;;;;5009632;28;20359;-71
2023/04/29 06:15:40;;;;;;;8.25;4.68;;;9.20;99.90;;;;;;5036685;28;20287;-70
2023/04/29 06:18:05;;;;;;;9.83;4.97;;;9.30;99.90;;;;;;5009896;28;20048;-70
2023/04/29 06:20:31;;;;;;;14.07;4.93;;;9.30;99.90;;;;;;5046679;28;20033;-70
2023/04/29 06:22:57;;;;;;;9.20;4.40;;;9.40;99.90;;;;;;5047209;28;20041;-70
2023/04/29 06:25:25;;;;;;;13.73;5.47;;;9.40;99.90;;;;;;5027504;28;20613;-70
2023/04/29 06:27:50;;;;;;;9.73;4.70;;;9.50;99.90;;;;;;5036327;28;20040;-70
2023/04/29 06:30:16;;;;;;;11.37;5.20;;;9.50;99.90;;;;;;5053520;28;20053;-70
2023/04/29 06:32:42;;;;;;;10.30;4.87;;;9.50;99.90;;;;;;5030635;28;20064;-70
2023/04/29 06:35:07;;;;;;;10.77;4.37;;;9.60;99.90;;;;;;5049622;28;20041;-70
2023/04/29 06:37:33;;;;;;;12.13;4.70;;;9.60;99.90;;;;;;5045400;28;20153;-70
2023/04/29 06:39:59;;;;;;;12.17;4.17;;;9.70;99.90;;;;;;5036887;28;20391;-70
2023/04/29 06:42:24;;;;;;;9.77;4.60;;;9.70;99.90;;;;;;5027614;28;20045;-70
2023/04/29 06:44:50;;;;;;;15.47;5.10;;;9.80;99.90;;;;;;5027322;28;20219;-70
2023/04/29 06:47:16;;;;;;;9.33;3.80;;;9.80;99.90;;;;;;5012426;28;20037;-70
2023/04/29 06:49:44;;;;;;;9.27;4.95;;;9.90;99.90;;;;;;5044497;28;20037;-70
2023/04/29 06:52:15;;;;;;;9.85;4.28;;;9.90;99.90;;;;;;5042504;28;20029;-70
2023/04/29 06:54:41;;;;;;;11.45;4.93;;;10.00;99.90;;;;;;5027378;28;20318;-70
2023/04/29 06:57:06;;;;;;;11.68;5.32;;;10.00;99.90;;;;;;5029878;28;20736;-70
2023/04/29 06:59:35;;;;;;;10.52;4.30;;;10.10;99.90;;;;;;5031618;28;20044;-70
2023/04/29 07:02:00;;;;;;;13.20;5.32;;;10.10;99.90;;;;;;5025856;28;20037;-70
2023/04/29 07:04:26;;;;;;;12.50;4.23;;;10.20;99.90;;;;;;5033600;28;20080;-70
2023/04/29 07:06:54;;;;;;;11.50;4.20;;;10.20;99.90;;;;;;5048677;28;20041;-72
2023/04/29 07:09:22;;;;;;;10.95;4.43;;;10.20;99.90;;;;;;5044305;28;20093;-74
2023/04/29 07:11:51;;;;;;;12.05;4.70;;;10.30;99.90;;;;;;5027177;28;20414;-75
2023/04/29 07:14:17;;;;;;;8.98;4.53;;;10.30;99.90;;;;;;5039017;28;20521;-70
2023/04/29 07:16:51;;;;;;;10.20;4.57;;;10.40;99.90;;;;;;5023233;28;20056;-70
2023/04/29 07:19:17;;;;;;;13.80;4.55;;;10.50;99.90;;;;;;5020687;28;20063;-69
2023/04/29 07:21:43;;;;;;;13.88;4.68;;;10.50;99.90;;;;;;5043375;28;20041;-69
2023/04/29 07:24:08;;;;;;;10.73;4.30;;;10.50;99.90;;;;;;5057617;28;20521;-70
2023/04/29 07:26:34;;;;;;;9.97;4.40;;;10.60;99.90;;;;;;5031286;28;20854;-69
2023/04/29 07:29:00;;;;;;;8.52;3.85;;;10.60;99.90;;;;;;5022803;28;20095;-70
2023/04/29 07:31:26;;;;;;;6.30;3.47;;;10.60;99.90;;;;;;5033859;28;20040;-70
2023/04/29 07:33:51;;;;;;;8.33;4.00;;;10.70;99.90;;;;;;5040383;28;20051;-70
2023/04/29 07:36:17;;;;;;;11.27;4.10;;;10.80;99.90;;;;;;5021021;28;20633;-70
2023/04/29 07:38:46;;;;;;;8.05;4.13;;;10.80;99.90;;;;;;5048963;28;20597;-70
2023/04/29 07:41:11;;;;;;;9.10;3.45;;;10.80;99.90;;;;;;5047543;28;20061;-70
2023/04/29 07:43:38;;;;;;;11.93;4.43;;;10.90;99.90;;;;;;5006576;28;20072;-70
2023/04/29 07:46:04;;;;;;;7.30;3.47;;;11.00;99.90;;;;;;5030541;28;20223;-70
2023/04/29 07:48:30;;;;;;;10.93;4.40;;;11.00;99.90;;;;;;5037701;28;20478;-70
2023/04/29 07:50:56;;;;;;;10.20;4.13;;;11.10;99.90;;;;;;5032935;28;20049;-70
2023/04/29 07:53:21;;;;;;;11.47;3.97;;;11.10;99.90;;;;;;5037644;28;20149;-70
2023/04/29 07:55:47;;;;;;;10.07;4.37;;;11.20;99.90;;;;;;5015757;28;20538;-70
2023/04/29 07:58:13;;;;;;;14.65;4.43;;;11.20;99.90;;;;;;5040260;28;20445;-70
2023/04/29 08:00:39;;;;;;;10.90;4.07;;;11.30;99.90;;;;;;5015383;28;20048;-69
2023/04/29 08:03:04;;;;;;;10.43;3.63;;;11.30;99.90;;;;;;5028743;28;20048;-69
2023/04/29 08:05:30;;;;;;;7.35;3.70;;;11.30;99.90;;;;;;5026269;28;20045;-68
2023/04/29 08:07:56;;;;;;;7.33;2.93;;;11.30;99.90;;;;;;5031713;28;20029;-69
2023/04/29 08:10:21;;;;;;;8.55;3.45;;;11.30;99.90;;;;;;5024192;28;20098;-68
2023/04/29 08:12:48;;;;;;;8.93;3.20;;;11.30;99.90;;;;;;5042038;28;20525;-68
2023/04/29 08:15:14;;;;;;;11.50;4.13;;;11.30;99.90;;;;;;5041762;28;20037;-68
2023/04/29 08:17:40;;;;;;;9.57;3.95;;;11.40;99.90;;;;;;5025300;28;20041;-68
2023/04/29 08:20:07;;;;;;;12.02;3.88;;;11.40;99.90;;;;;;5005406;28;20142;-68
2023/04/29 08:22:33;;;;;;;9.05;3.72;;;11.50;99.90;;;;;;5023301;28;20049;-68
2023/04/29 08:24:59;;;;;;;8.43;3.33;;;11.50;99.90;;;;;;5040241;28;20451;-68
2023/04/29 08:27:25;;;;;;;6.82;3.38;;;11.60;99.90;;;;;;5040314;28;20052;-68
2023/04/29 08:29:51;;;;;;;6.65;3.42;;;11.70;99.90;;;;;;5011846;28;20559;-69
2023/04/29 08:32:17;;;;;;;11.37;4.63;;;11.70;99.90;;;;;;5007471;28;20033;-68
2023/04/29 08:34:43;;;;;;;6.60;3.10;;;11.80;99.90;;;;;;5042546;28;20580;-68
2023/04/29 08:37:09;;;;;;;9.10;3.00;;;11.80;99.90;;;;;;5029766;28;20044;-68
2023/04/29 08:39:35;;;;;;;;;;;11.80;99.90;;;;;;5025412;28;20041;-68
2023/04/29 08:42:08;;;;;;;7.80;3.40;;;11.80;99.90;;;;;;5018083;28;20392;-69
2023/04/29 08:44:35;;;;;;;10.00;3.47;;;11.90;99.90;;;;;;5007157;28;20121;-69
2023/04/29 08:47:01;;;;;;;8.20;4.60;;;12.10;99.90;;;;;;5003639;28;20147;-69
2023/04/29 08:49:32;;;;;;;14.15;4.00;;;12.10;99.90;;;;;;5019309;28;20029;-70
2023/04/29 08:52:02;;;;;;;6.88;3.63;;;12.20;99.90;;;;;;5022456;28;20504;-69
2023/04/29 08:54:28;;;;;;;9.30;3.80;;;12.30;99.90;;;;;;5000052;28;20411;-69
2023/04/29 08:56:56;;;;;;;8.48;3.50;;;12.40;99.90;;;;;;5017048;28;20050;-69
2023/04/29 08:59:22;;;;;;;6.47;3.70;;;12.50;99.90;;;;;;5022316;28;20091;-70
2023/04/29 09:01:51;;;;;;;8.93;3.75;;;12.50;99.90;;;;;;5016994;28;20403;-73
2023/04/29 09:04:49;;;;;;;10.18;4.15;;;12.60;99.90;;;;;;5019679;28;20849;-73
2023/04/29 09:07:15;;;;;;;;;;;12.70;99.90;;;;;;4989964;28;20136;-69
2023/04/29 09:09:41;;;;;;;8.43;3.85;;;12.70;99.90;;;;;;5042615;28;20023;-69
2023/04/29 09:12:08;;;;;;;6.85;3.08;;;12.70;99.90;;;;;;5042098;28;20124;-69
2023/04/29 09:14:35;;;;;;;6.72;3.53;;;12.80;99.90;;;;;;5033346;28;20048;-69
2023/04/29 09:17:00;;;;;;;10.73;4.20;;;12.90;99.90;;;;;;5031177;28;20033;-69
2023/04/29 09:19:34;;;;;;;7.22;2.80;;;12.90;99.90;;;;;;5037006;28;20052;-69
2023/04/29 09:22:03;;;;;;;9.60;3.78;;;13.00;99.90;;;;;;5024264;28;20052;-69
2023/04/29 09:24:35;;;;;;;9.88;3.80;;;13.10;99.90;;;;;;5019657;28;20414;-69
2023/04/29 09:27:02;;;;;;;8.07;3.67;;;13.30;99.90;;;;;;5022998;28;20059;-69
2023/04/29 09:29:30;;;;;;;7.47;3.75;;;13.40;99.90;;;;;;5021927;28;20326;-69
2023/04/29 09:31:57;;;;;;;8.57;3.67;;;13.50;99.90;;;;;;5019216;28;20060;-69
2023/04/29 09:34:39;;;;;;;10.60;3.75;;;13.50;99.90;;;;;;5018771;28;20055;-69
2023/04/29 09:37:23;;;;;;;7.32;3.33;;;13.50;99.90;;;;;;5018787;28;20130;-69
2023/04/29 09:39:49;;;;;;;8.20;3.63;;;13.50;99.90;;;;;;5001399;28;20049;-69
2023/04/29 09:42:14;;;;;;;8.88;3.95;;;13.50;99.90;;;;;;5007284;28;20681;-69
2023/04/29 09:44:41;;;;;;;8.38;4.45;;;13.40;99.90;;;;;;5027232;28;20037;-69
2023/04/29 09:47:09;;;;;;;7.53;3.65;;;13.40;99.90;;;;;;5015175;28;20056;-68
2023/04/29 09:49:44;;;;;;;7.00;2.70;;;13.50;99.90;;;;;;5033239;28;20147;-70
2023/04/29 09:52:15;;;;;;;9.68;4.18;;;13.50;99.90;;;;;;5001600;28;20368;-69
2023/04/29 09:54:42;;;;;;;6.00;3.05;;;13.50;99.90;;;;;;5021484;28;20041;-69
2023/04/29 09:57:09;;;;;;;5.97;3.55;;;13.60;99.90;;;;;;5013352;28;20550;-69
2023/04/29 09:59:39;;;;;;;5.75;3.40;;;13.70;99.90;;;;;;5022049;28;20421;-70
2023/04/29 10:02:19;;;;;;;11.15;3.70;;;13.70;99.90;;;;;;5024082;28;20048;-69
2023/04/29 10:04:56;;;;;;;4.88;2.88;;;13.80;99.90;;;;;;5019846;28;20311;-69
2023/04/29 10:07:21;;;;;;;9.35;3.50;;;13.80;99.90;;;;;;5037471;28;20080;-70
2023/04/29 10:09:50;;;;;;;9.73;3.60;;;13.80;99.90;;;;;;5020498;28;20091;-69
2023/04/29 10:12:19;;;;;;;7.82;4.10;;;13.80;99.90;;;;;;5035348;28;20045;-69
2023/04/29 10:15:11;;;;;;;7.10;3.13;;;13.90;99.90;;;;;;5029880;28;20116;-69
2023/04/29 10:17:48;;;;;;;6.35;2.83;;;13.90;99.90;;;;;;5019828;28;20333;-69
2023/04/29 10:20:18;;;;;;;4.18;2.53;;;14.00;99.90;;;;;;5010781;28;20151;-70
2023/04/29 10:22:48;;;;;;;5.10;1.83;;;14.10;99.90;;;;;;5032672;28;20056;-70
2023/04/29 10:25:17;;;;;;;6.43;1.80;;;14.10;99.90;;;;;;5045449;28;20405;-70
2023/04/29 10:27:43;;;;;;;4.65;2.58;;;14.20;99.90;;;;;;5020272;28;20068;-69
2023/04/29 10:30:15;;;;;;;4.10;1.95;;;14.20;99.90;;;;;;5039077;28;20310;-69
2023/04/29 10:32:46;;;;;;;6.30;1.98;;;14.30;99.90;;;;;;5025567;28;20060;-69
2023/04/29 10:35:18;;;;;;;6.30;2.00;;;14.40;99.90;;;;;;5036992;28;20084;-69
2023/04/29 10:37:45;;;;;;;7.55;2.00;;;14.50;99.90;;;;;;5014373;28;20136;-69
2023/04/29 10:40:35;;;;;;;4.82;2.00;;;14.50;99.90;;;;;;5003367;28;20069;-69
2023/04/29 10:43:01;;;;;;;5.75;2.30;;;14.50;99.90;;;;;;5039568;28;20076;-70
2023/04/29 10:45:34;;;;;;;5.63;1.85;;;14.50;99.90;;;;;;5007688;28;20492;-70
2023/04/29 10:48:07;;;;;;;7.75;1.70;;;14.50;99.70;;;;;;5014936;28;20208;-69
2023/04/29 10:50:47;;;;;;;6.65;1.90;;;14.50;97.40;;;;;;5032420;28;20041;-70
2023/04/29 10:53:21;;;;;;;4.63;1.67;;;14.40;96.40;;;;;;5020378;28;20136;-70
2023/04/29 10:55:48;;;;;;;4.50;1.85;;;14.40;96.90;;;;;;5019401;28;20469;-69
2023/04/29 10:58:32;;;;;;;3.95;1.60;;;14.40;97.60;;;;;;5012072;28;20053;-70
2023/04/29 11:00:58;;;;;;;2.95;1.42;;;14.50;95.20;;;;;;5022680;28;20484;-69
2023/04/29 11:03:47;;;;;;;3.58;1.60;;;14.60;95.60;;;;;;5015327;28;20037;-70
2023/04/29 11:06:14;;;;;;;3.10;1.33;;;14.60;94.80;;;;;;5040142;28;20052;-71
2023/04/29 11:08:40;;;;;;;;;;;14.70;94.00;;;;;;5033498;28;20083;-70
2023/04/29 11:11:06;;;;;;;2.92;1.10;;;14.70;88.80;;;;;;5046070;28;20012;-70
2023/04/29 11:13:39;;;;;;;2.60;1.00;;;14.70;89.50;;;;;;5024722;28;20573;-69
2023/04/29 11:16:07;;;;;;;4.00;1.10;;;14.70;86.10;;;;;;5039750;28;20054;-70
2023/04/29 11:18:33;;;;;;;4.50;1.13;;;14.70;85.90;;;;;;5017918;28;20064;-70
2023/04/29 11:21:05;;;;;;;2.97;1.30;;;14.80;86.90;;;;;;5030765;28;20055;-70
2023/04/29 11:23:40;;;;;;;4.63;2.05;;;14.80;84.70;;;;;;5042140;28;20053;-70
2023/04/29 11:26:06;;;;;;;4.78;1.48;;;14.80;85.70;;;;;;5047403;28;20652;-70
2023/04/29 11:28:33;;;;;;;5.55;1.75;;;14.80;87.20;;;;;;5024164;28;20040;-70
2023/04/29 11:30:59;;;;;;;4.07;1.52;;;14.90;88.40;;;;;;5036662;28;20052;-69
2023/04/29 11:33:26;;;;;;;1.73;1.20;;;15.00;89.60;;;;;;5003612;28;20049;-70
2023/04/29 11:35:53;;;;;;;4.28;1.75;;;15.10;89.60;;;;;;5022467;28;20079;-69
2023/04/29 11:38:29;;;;;;;5.05;1.50;;;15.30;90.20;;;;;;5034275;28;20044;-70
2023/04/29 11:40:58;;;;;;;5.00;1.27;;;15.30;89.30;;;;;;5017733;28;20055;-69
2023/04/29 11:43:24;;;;;;;3.55;1.35;;;15.30;90.70;;;;;;5020649;28;20450;-69
2023/04/29 11:45:51;;;;;;;8.68;1.48;;;15.50;91.10;;;;;;5013359;28;20045;-70
2023/04/29 11:48:18;;;;;;;3.92;1.70;;;15.60;91.10;;;;;;5028884;28;20629;-70
2023/04/29 11:50:57;;;;;;;4.57;1.30;;;15.70;91.30;;;;;;5015050;28;20106;-69
2023/04/29 11:53:26;;;;;;;3.20;1.55;;;15.70;91.10;;;;;;5016748;28;20044;-69
2023/04/29 11:55:53;;;;;;;3.75;1.60;;;15.70;90.60;;;;;;5005253;28;20217;-69
2023/04/29 11:58:23;;;;;;;4.18;1.25;;;15.60;91.00;;;;;;5024351;28;20619;-69
2023/04/29 12:00:49;;;;;;;2.95;1.42;;;15.70;91.20;;;;;;5033601;28;20045;-70
2023/04/29 12:03:15;;;;;;;5.70;1.52;;;15.70;91.30;;;;;;5019242;28;20215;-70
2023/04/29 12:05:49;;;;;;;4.97;1.58;;;15.80;91.40;;;;;;5033654;28;20071;-69
2023/04/29 12:08:19;;;;;;;2.10;1.20;;;15.80;90.70;;;;;;5037043;28;20057;-69
2023/04/29 12:10:47;;;;;;;6.70;1.70;;;15.80;90.70;;;;;;5004329;28;20094;-69
2023/04/29 12:13:13;;;;;;;5.95;1.70;;;15.90;90.50;;;;;;5028010;22;20117;-70
2023/04/29 12:15:39;;;;;;;;;;;16.00;90.50;;;;;;5022739;28;20444;-70
2023/04/29 12:18:08;;;;;;;5.30;1.80;;;16.10;89.10;;;;;;5029958;28;19974;-70
2023/04/29 12:20:34;;;;;;;3.17;1.27;;;16.20;91.00;;;;;;5007214;28;20132;-72
2023/04/29 12:23:17;;;;;;;4.72;1.70;;;16.30;90.50;;;;;;4992352;28;20136;-72
2023/04/29 12:25:55;;;;;;;2.88;1.45;;;16.30;88.70;;;;;;4988534;28;20046;-72
2023/04/29 12:28:21;;;;;;;2.97;1.40;;;16.40;87.40;;;;;;4992340;28;20125;-72
2023/04/29 12:30:52;;;;;;;9.07;1.98;;;16.50;89.10;;;;;;4982617;28;20084;-72
2023/04/29 12:33:23;;;;;;;2.55;1.27;;;16.60;89.20;;;;;;4988390;28;20578;-72
2023/04/29 12:35:50;;;;;;;6.18;1.48;;;16.60;88.30;;;;;;4996432;28;20105;-72
2023/04/29 12:38:23;;;;;;;3.03;1.30;;;16.60;90.20;;;;;;4990188;28;20073;-72
2023/04/29 12:40:51;;;;;;;5.40;1.15;;;16.80;89.80;;;;;;5008266;28;20428;-72
2023/04/29 12:43:17;;;;;;;4.57;1.10;;;17.00;90.00;;;;;;4976996;28;20051;-72
2023/04/29 12:45:43;;;;;;;5.32;1.33;;;17.10;88.50;;;;;;4996104;28;20042;-72
2023/04/29 12:48:10;;;;;;;2.60;1.50;;;17.10;87.90;;;;;;5005775;28;20033;-72
2023/04/29 12:50:38;;;;;;;3.25;0.90;;;17.00;86.80;;;;;;4992393;28;20109;-73
2023/04/29 12:53:05;;;;;;;1.58;0.80;;;17.00;85.90;;;;;;5001434;28;20043;-72